Terminal Aerodrome Forecast
Issued by NWS Buffalo, NY

Current Version | Previous Version | Text Only | Print | Product List | Glossary On
Versions: 1 2 3 4 5 6 7 8 9 10 11 12 13 14 15 16 17 18 19 20 21 22 23 24 25
836
FTUS41 KBUF 042336
TAFROC
TAF
KROC 042336Z 0500/0524 09006KT P6SM BKN200
     FM050200 11009KT P6SM VCSH BKN100
     FM050400 12010G16KT 2SM -SN BKN070
     FM050600 12010G16KT 1/2SM SN OVC020
     FM051200 19008KT P6SM VCSH OVC015
     FM051500 27016G25KT P6SM BKN015
     FM052200 28009KT P6SM BKN020=

USA.gov is the U.S. government's official web portal to all federal, state and local government web resources and services.